sensor_id;sensor_type;location;lat;lon;timestamp;temperature;humidity
49821;DHT22;36893;52.520;13.450;2023-06-22T00:03:22;28.20;66.90
49821;DHT22;36893;52.520;13.450;2023-06-22T00:13:24;28.10;66.80
49821;DHT22;36893;52.520;13.450;2023-06-22T00:23:25;28.10;66.90
49821;DHT22;36893;52.520;13.450;2023-06-22T00:33:26;28.00;67.00
49821;DHT22;36893;52.520;13.450;2023-06-22T00:43:28;28.00;67.10
49821;DHT22;36893;52.520;13.450;2023-06-22T00:53:29;27.90;67.10
49821;DHT22;36893;52.520;13.450;2023-06-22T01:03:29;27.80;67.40
49821;DHT22;36893;52.520;13.450;2023-06-22T01:13:56;27.70;67.40
49821;DHT22;36893;52.520;13.450;2023-06-22T01:24:02;27.70;67.70
49821;DHT22;36893;52.520;13.450;2023-06-22T01:34:12;27.60;67.70
49821;DHT22;36893;52.520;13.450;2023-06-22T01:44:13;27.60;67.90
49821;DHT22;36893;52.520;13.450;2023-06-22T01:54:14;27.60;68.00
49821;DHT22;36893;52.520;13.450;2023-06-22T02:04:21;27.50;68.20
49821;DHT22;36893;52.520;13.450;2023-06-22T02:14:25;27.40;68.30
49821;DHT22;36893;52.520;13.450;2023-06-22T02:24:26;27.40;68.50
49821;DHT22;36893;52.520;13.450;2023-06-22T02:34:27;27.30;68.60
49821;DHT22;36893;52.520;13.450;2023-06-22T02:44:27;27.30;68.80
49821;DHT22;36893;52.520;13.450;2023-06-22T02:54:28;27.30;69.10
49821;DHT22;36893;52.520;13.450;2023-06-22T03:04:29;27.30;69.30
49821;DHT22;36893;52.520;13.450;2023-06-22T03:14:31;27.30;69.50
49821;DHT22;36893;52.520;13.450;2023-06-22T03:24:32;27.30;69.60
49821;DHT22;36893;52.520;13.450;2023-06-22T03:34:35;27.20;69.60
49821;DHT22;36893;52.520;13.450;2023-06-22T03:44:38;27.20;69.60
49821;DHT22;36893;52.520;13.450;2023-06-22T03:54:38;27.20;69.40
49821;DHT22;36893;52.520;13.450;2023-06-22T04:04:39;27.20;69.40
49821;DHT22;36893;52.520;13.450;2023-06-22T04:14:40;27.20;69.40
49821;DHT22;36893;52.520;13.450;2023-06-22T04:24:40;27.20;69.30
49821;DHT22;36893;52.520;13.450;2023-06-22T04:34:42;27.10;69.20
49821;DHT22;36893;52.520;13.450;2023-06-22T04:44:42;27.20;69.00
49821;DHT22;36893;52.520;13.450;2023-06-22T04:54:43;27.30;68.80
49821;DHT22;36893;52.520;13.450;2023-06-22T05:04:47;27.40;68.80
49821;DHT22;36893;52.520;13.450;2023-06-22T05:14:51;27.50;68.70
49821;DHT22;36893;52.520;13.450;2023-06-22T05:24:52;27.60;68.60
49821;DHT22;36893;52.520;13.450;2023-06-22T05:34:52;27.70;68.70
49821;DHT22;36893;52.520;13.450;2023-06-22T05:44:53;27.60;68.40
49821;DHT22;36893;52.520;13.450;2023-06-22T05:54:54;27.60;68.30
49821;DHT22;36893;52.520;13.450;2023-06-22T06:04:54;27.70;68.30
49821;DHT22;36893;52.520;13.450;2023-06-22T06:14:55;27.80;68.30
49821;DHT22;36893;52.520;13.450;2023-06-22T06:24:56;27.80;68.10
49821;DHT22;36893;52.520;13.450;2023-06-22T06:34:57;27.90;68.10
49821;DHT22;36893;52.520;13.450;2023-06-22T06:44:58;28.00;68.10
49821;DHT22;36893;52.520;13.450;2023-06-22T06:54:59;28.00;68.10
49821;DHT22;36893;52.520;13.450;2023-06-22T07:04:59;28.10;68.10
49821;DHT22;36893;52.520;13.450;2023-06-22T07:15:05;28.10;68.00
49821;DHT22;36893;52.520;13.450;2023-06-22T07:25:09;28.20;68.10
49821;DHT22;36893;52.520;13.450;2023-06-22T07:35:10;28.20;68.10
49821;DHT22;36893;52.520;13.450;2023-06-22T07:45:11;28.20;68.10
49821;DHT22;36893;52.520;13.450;2023-06-22T07:55:12;28.20;68.10
49821;DHT22;36893;52.520;13.450;2023-06-22T08:05:14;28.30;68.30
49821;DHT22;36893;52.520;13.450;2023-06-22T08:15:15;28.30;68.30
49821;DHT22;36893;52.520;13.450;2023-06-22T08:25:15;28.30;68.20
49821;DHT22;36893;52.520;13.450;2023-06-22T08:35:16;28.40;68.30
49821;DHT22;36893;52.520;13.450;2023-06-22T08:45:17;28.50;68.40
49821;DHT22;36893;52.520;13.450;2023-06-22T08:55:17;28.50;68.30
49821;DHT22;36893;52.520;13.450;2023-06-22T09:05:18;28.60;68.30
49821;DHT22;36893;52.520;13.450;2023-06-22T09:15:18;28.60;68.30
49821;DHT22;36893;52.520;13.450;2023-06-22T09:25:19;28.70;68.30
49821;DHT22;36893;52.520;13.450;2023-06-22T09:35:20;28.70;68.30
49821;DHT22;36893;52.520;13.450;2023-06-22T09:45:21;28.70;68.30
49821;DHT22;36893;52.520;13.450;2023-06-22T09:55:22;28.80;68.30
49821;DHT22;36893;52.520;13.450;2023-06-22T10:05:23;28.80;68.30
49821;DHT22;36893;52.520;13.450;2023-06-22T10:15:23;28.90;68.30
49821;DHT22;36893;52.520;13.450;2023-06-22T10:25:24;28.90;68.30
49821;DHT22;36893;52.520;13.450;2023-06-22T10:35:25;28.90;68.30
49821;DHT22;36893;52.520;13.450;2023-06-22T10:45:25;28.90;69.10
49821;DHT22;36893;52.520;13.450;2023-06-22T10:55:27;29.00;68.40
49821;DHT22;36893;52.520;13.450;2023-06-22T11:05:28;29.00;68.40
49821;DHT22;36893;52.520;13.450;2023-06-22T11:15:28;29.00;68.40
49821;DHT22;36893;52.520;13.450;2023-06-22T11:25:29;28.90;68.40
49821;DHT22;36893;52.520;13.450;2023-06-22T11:35:30;29.00;68.50
49821;DHT22;36893;52.520;13.450;2023-06-22T11:45:30;29.00;68.50
49821;DHT22;36893;52.520;13.450;2023-06-22T11:55:31;29.00;68.50
49821;DHT22;36893;52.520;13.450;2023-06-22T12:05:32;29.00;68.50
49821;DHT22;36893;52.520;13.450;2023-06-22T12:15:32;29.00;68.50
49821;DHT22;36893;52.520;13.450;2023-06-22T12:25:33;29.10;68.60
49821;DHT22;36893;52.520;13.450;2023-06-22T12:35:34;29.10;68.70
49821;DHT22;36893;52.520;13.450;2023-06-22T12:45:35;29.10;68.70
49821;DHT22;36893;52.520;13.450;2023-06-22T12:55:35;29.10;68.60
49821;DHT22;36893;52.520;13.450;2023-06-22T13:05:36;29.10;68.60
49821;DHT22;36893;52.520;13.450;2023-06-22T13:15:37;29.10;68.50
49821;DHT22;36893;52.520;13.450;2023-06-22T13:25:37;29.20;68.70
49821;DHT22;36893;52.520;13.450;2023-06-22T13:35:38;29.20;68.60
49821;DHT22;36893;52.520;13.450;2023-06-22T13:45:39;29.20;68.60
49821;DHT22;36893;52.520;13.450;2023-06-22T13:55:39;29.20;68.60
49821;DHT22;36893;52.520;13.450;2023-06-22T14:05:41;29.20;68.50
49821;DHT22;36893;52.520;13.450;2023-06-22T14:15:42;29.20;68.50
49821;DHT22;36893;52.520;13.450;2023-06-22T14:25:43;29.20;68.40
49821;DHT22;36893;52.520;13.450;2023-06-22T14:35:43;29.20;68.50
49821;DHT22;36893;52.520;13.450;2023-06-22T14:45:44;29.20;68.50
49821;DHT22;36893;52.520;13.450;2023-06-22T14:55:45;29.30;68.60
49821;DHT22;36893;52.520;13.450;2023-06-22T15:05:46;29.30;68.60
49821;DHT22;36893;52.520;13.450;2023-06-22T15:15:47;29.30;68.60
49821;DHT22;36893;52.520;13.450;2023-06-22T15:25:47;29.30;68.60
49821;DHT22;36893;52.520;13.450;2023-06-22T15:35:48;29.30;68.50
49821;DHT22;36893;52.520;13.450;2023-06-22T15:45:49;29.40;68.50
49821;DHT22;36893;52.520;13.450;2023-06-22T15:55:49;29.40;68.50
49821;DHT22;36893;52.520;13.450;2023-06-22T16:05:50;29.40;68.50
49821;DHT22;36893;52.520;13.450;2023-06-22T16:15:51;29.40;68.50
49821;DHT22;36893;52.520;13.450;2023-06-22T16:25:55;29.40;68.50
49821;DHT22;36893;52.520;13.450;2023-06-22T16:35:58;29.40;68.40
49821;DHT22;36893;52.520;13.450;2023-06-22T16:46:00;29.40;68.40
49821;DHT22;36893;52.520;13.450;2023-06-22T16:56:01;29.40;68.40
49821;DHT22;36893;52.520;13.450;2023-06-22T17:06:03;29.50;68.40
49821;DHT22;36893;52.520;13.450;2023-06-22T17:16:05;29.50;68.30
49821;DHT22;36893;52.520;13.450;2023-06-22T17:26:05;29.50;68.30
49821;DHT22;36893;52.520;13.450;2023-06-22T17:36:11;29.50;68.10
49821;DHT22;36893;52.520;13.450;2023-06-22T17:46:13;29.50;68.20
49821;DHT22;36893;52.520;13.450;2023-06-22T17:56:17;29.50;68.10
49821;DHT22;36893;52.520;13.450;2023-06-22T18:06:21;29.60;68.00
49821;DHT22;36893;52.520;13.450;2023-06-22T18:16:24;29.60;68.00
49821;DHT22;36893;52.520;13.450;2023-06-22T18:26:25;29.60;68.00
49821;DHT22;36893;52.520;13.450;2023-06-22T18:36:29;29.60;67.90
49821;DHT22;36893;52.520;13.450;2023-06-22T18:46:35;29.60;67.90
49821;DHT22;36893;52.520;13.450;2023-06-22T18:56:51;29.60;67.80
49821;DHT22;36893;52.520;13.450;2023-06-22T19:06:55;29.70;67.80
49821;DHT22;36893;52.520;13.450;2023-06-22T19:16:59;29.70;67.70
49821;DHT22;36893;52.520;13.450;2023-06-22T19:27:00;29.70;67.70
49821;DHT22;36893;52.520;13.450;2023-06-22T19:37:01;29.70;67.60
49821;DHT22;36893;52.520;13.450;2023-06-22T19:47:01;29.70;67.60
49821;DHT22;36893;52.520;13.450;2023-06-22T19:57:02;29.70;67.50
49821;DHT22;36893;52.520;13.450;2023-06-22T20:07:05;29.70;67.60
49821;DHT22;36893;52.520;13.450;2023-06-22T20:17:06;29.70;67.40
49821;DHT22;36893;52.520;13.450;2023-06-22T20:27:12;29.70;67.40
49821;DHT22;36893;52.520;13.450;2023-06-22T20:37:15;29.70;67.20
49821;DHT22;36893;52.520;13.450;2023-06-22T20:47:19;29.60;66.80
49821;DHT22;36893;52.520;13.450;2023-06-22T20:57:23;29.60;66.60
49821;DHT22;36893;52.520;13.450;2023-06-22T21:07:23;29.60;66.70
49821;DHT22;36893;52.520;13.450;2023-06-22T21:17:24;29.50;67.00
49821;DHT22;36893;52.520;13.450;2023-06-22T21:27:25;29.50;67.30
49821;DHT22;36893;52.520;13.450;2023-06-22T21:37:26;29.40;67.60
49821;DHT22;36893;52.520;13.450;2023-06-22T21:47:26;29.40;67.90
49821;DHT22;36893;52.520;13.450;2023-06-22T21:57:27;29.30;68.20
49821;DHT22;36893;52.520;13.450;2023-06-22T22:07:28;29.30;68.60
49821;DHT22;36893;52.520;13.450;2023-06-22T22:17:30;29.20;68.60
49821;DHT22;36893;52.520;13.450;2023-06-22T22:27:31;29.20;69.00
49821;DHT22;36893;52.520;13.450;2023-06-22T22:37:31;29.20;69.30
49821;DHT22;36893;52.520;13.450;2023-06-22T22:47:33;29.10;69.50
49821;DHT22;36893;52.520;13.450;2023-06-22T22:57:34;29.00;69.60
49821;DHT22;36893;52.520;13.450;2023-06-22T23:07:35;28.90;69.60
49821;DHT22;36893;52.520;13.450;2023-06-22T23:17:35;28.90;69.80
49821;DHT22;36893;52.520;13.450;2023-06-22T23:27:36;28.80;69.70
49821;DHT22;36893;52.520;13.450;2023-06-22T23:37:37;28.70;69.70
49821;DHT22;36893;52.520;13.450;2023-06-22T23:47:41;28.60;69.70
49821;DHT22;36893;52.520;13.450;2023-06-22T23:57:43;28.60;69.80
